sensor_id;sensor_type;location;lat;lon;timestamp;temperature;humidity
9486;DHT22;4781;48.776;9.200;2022-09-24T00:02:04;11.90;99.90
9486;DHT22;4781;48.776;9.200;2022-09-24T00:04:34;11.90;99.90
9486;DHT22;4781;48.776;9.200;2022-09-24T00:07:03;11.90;99.90
9486;DHT22;4781;48.776;9.200;2022-09-24T00:09:31;11.90;99.90
9486;DHT22;4781;48.776;9.200;2022-09-24T00:12:00;11.90;99.90
9486;DHT22;4781;48.776;9.200;2022-09-24T00:14:30;11.80;99.90
9486;DHT22;4781;48.776;9.200;2022-09-24T00:16:59;11.90;99.90
9486;DHT22;4781;48.776;9.200;2022-09-24T00:19:27;11.80;99.90
9486;DHT22;4781;48.776;9.200;2022-09-24T00:21:56;11.80;99.90
9486;DHT22;4781;48.776;9.200;2022-09-24T00:24:24;11.80;99.90
9486;DHT22;4781;48.776;9.200;2022-09-24T00:27:10;11.80;99.90
9486;DHT22;4781;48.776;9.200;2022-09-24T00:29:39;11.90;99.90
9486;DHT22;4781;48.776;9.200;2022-09-24T00:32:07;11.90;99.90
9486;DHT22;4781;48.776;9.200;2022-09-24T00:34:36;11.90;99.90
9486;DHT22;4781;48.776;9.200;2022-09-24T00:37:04;11.90;99.90
9486;DHT22;4781;48.776;9.200;2022-09-24T00:39:32;11.80;99.90
9486;DHT22;4781;48.776;9.200;2022-09-24T00:42:01;11.90;99.90
9486;DHT22;4781;48.776;9.200;2022-09-24T00:44:49;11.80;99.90
9486;DHT22;4781;48.776;9.200;2022-09-24T00:47:25;11.80;99.90
9486;DHT22;4781;48.776;9.200;2022-09-24T00:52:46;11.80;99.90
9486;DHT22;4781;48.776;9.200;2022-09-24T00:55:22;11.90;99.90
9486;DHT22;4781;48.776;9.200;2022-09-24T00:57:57;12.00;99.90
9486;DHT22;4781;48.776;9.200;2022-09-24T01:00:26;12.00;99.90
9486;DHT22;4781;48.776;9.200;2022-09-24T01:03:01;11.90;99.90
9486;DHT22;4781;48.776;9.200;2022-09-24T01:05:31;11.80;99.90
9486;DHT22;4781;48.776;9.200;2022-09-24T01:08:00;11.80;99.90
9486;DHT22;4781;48.776;9.200;2022-09-24T01:10:48;11.70;99.90
9486;DHT22;4781;48.776;9.200;2022-09-24T01:19:07;11.60;99.90
9486;DHT22;4781;48.776;9.200;2022-09-24T01:22:00;11.40;99.90
9486;DHT22;4781;48.776;9.200;2022-09-24T01:28:06;11.40;99.90
9486;DHT22;4781;48.776;9.200;2022-09-24T01:30:34;11.40;99.90
9486;DHT22;4781;48.776;9.200;2022-09-24T01:33:10;11.40;99.90
9486;DHT22;4781;48.776;9.200;2022-09-24T01:35:43;11.40;99.90
9486;DHT22;4781;48.776;9.200;2022-09-24T01:38:21;11.30;99.90
9486;DHT22;4781;48.776;9.200;2022-09-24T01:40:57;11.30;99.90
9486;DHT22;4781;48.776;9.200;2022-09-24T01:43:29;11.20;99.90
9486;DHT22;4781;48.776;9.200;2022-09-24T01:46:01;11.20;99.90
9486;DHT22;4781;48.776;9.200;2022-09-24T01:48:37;11.10;99.90
9486;DHT22;4781;48.776;9.200;2022-09-24T01:51:19;11.10;99.90
9486;DHT22;4781;48.776;9.200;2022-09-24T01:53:57;11.20;99.90
9486;DHT22;4781;48.776;9.200;2022-09-24T01:56:42;11.20;99.90
9486;DHT22;4781;48.776;9.200;2022-09-24T01:59:15;11.10;99.90
9486;DHT22;4781;48.776;9.200;2022-09-24T02:04:38;11.00;99.90
9486;DHT22;4781;48.776;9.200;2022-09-24T02:07:14;10.90;99.90
9486;DHT22;4781;48.776;9.200;2022-09-24T02:09:48;10.90;99.90
9486;DHT22;4781;48.776;9.200;2022-09-24T02:14:53;10.80;99.90
9486;DHT22;4781;48.776;9.200;2022-09-24T02:17:26;10.80;99.90
9486;DHT22;4781;48.776;9.200;2022-09-24T02:19:57;10.70;99.90
9486;DHT22;4781;48.776;9.200;2022-09-24T02:22:29;10.80;99.90
9486;DHT22;4781;48.776;9.200;2022-09-24T02:25:00;10.80;99.90
9486;DHT22;4781;48.776;9.200;2022-09-24T02:27:30;10.80;99.90
9486;DHT22;4781;48.776;9.200;2022-09-24T02:29:59;10.90;99.90
9486;DHT22;4781;48.776;9.200;2022-09-24T02:32:30;10.90;99.90
9486;DHT22;4781;48.776;9.200;2022-09-24T02:35:03;11.00;99.90
9486;DHT22;4781;48.776;9.200;2022-09-24T02:37:42;10.90;99.90
9486;DHT22;4781;48.776;9.200;2022-09-24T02:40:11;10.90;99.90
9486;DHT22;4781;48.776;9.200;2022-09-24T02:42:41;10.90;99.90
9486;DHT22;4781;48.776;9.200;2022-09-24T02:45:10;10.90;99.90
9486;DHT22;4781;48.776;9.200;2022-09-24T02:47:39;10.90;99.90
9486;DHT22;4781;48.776;9.200;2022-09-24T02:50:08;10.90;99.90
9486;DHT22;4781;48.776;9.200;2022-09-24T02:52:36;10.90;99.90
9486;DHT22;4781;48.776;9.200;2022-09-24T02:55:05;10.90;99.90
9486;DHT22;4781;48.776;9.200;2022-09-24T02:57:34;10.90;99.90
9486;DHT22;4781;48.776;9.200;2022-09-24T03:00:03;10.90;99.90
9486;DHT22;4781;48.776;9.200;2022-09-24T03:02:32;10.90;99.90
9486;DHT22;4781;48.776;9.200;2022-09-24T03:05:00;11.00;99.90
9486;DHT22;4781;48.776;9.200;2022-09-24T03:07:28;11.00;99.90
9486;DHT22;4781;48.776;9.200;2022-09-24T03:09:57;11.00;99.90
9486;DHT22;4781;48.776;9.200;2022-09-24T03:12:25;10.90;99.90
9486;DHT22;4781;48.776;9.200;2022-09-24T03:14:54;11.00;99.90
9486;DHT22;4781;48.776;9.200;2022-09-24T03:17:22;11.00;99.90
9486;DHT22;4781;48.776;9.200;2022-09-24T03:19:50;11.00;99.90
9486;DHT22;4781;48.776;9.200;2022-09-24T03:22:19;11.00;99.90
9486;DHT22;4781;48.776;9.200;2022-09-24T03:24:47;11.00;99.90
9486;DHT22;4781;48.776;9.200;2022-09-24T03:27:16;11.00;99.90
9486;DHT22;4781;48.776;9.200;2022-09-24T03:29:44;11.00;99.90
9486;DHT22;4781;48.776;9.200;2022-09-24T03:32:30;11.10;99.90
9486;DHT22;4781;48.776;9.200;2022-09-24T03:34:59;11.00;99.90
9486;DHT22;4781;48.776;9.200;2022-09-24T03:37:28;11.00;99.90
9486;DHT22;4781;48.776;9.200;2022-09-24T03:39:58;11.10;99.90
9486;DHT22;4781;48.776;9.200;2022-09-24T03:42:26;11.10;99.90
9486;DHT22;4781;48.776;9.200;2022-09-24T03:44:55;11.10;99.90
9486;DHT22;4781;48.776;9.200;2022-09-24T03:47:24;11.10;99.90
9486;DHT22;4781;48.776;9.200;2022-09-24T03:49:52;11.10;99.90
9486;DHT22;4781;48.776;9.200;2022-09-24T03:52:21;11.20;99.90
9486;DHT22;4781;48.776;9.200;2022-09-24T03:54:50;11.20;99.90
9486;DHT22;4781;48.776;9.200;2022-09-24T03:57:18;11.30;99.90
9486;DHT22;4781;48.776;9.200;2022-09-24T03:59:47;11.30;99.90
9486;DHT22;4781;48.776;9.200;2022-09-24T04:02:17;11.30;99.90
9486;DHT22;4781;48.776;9.200;2022-09-24T04:04:45;11.20;99.90
9486;DHT22;4781;48.776;9.200;2022-09-24T04:07:14;11.20;99.90
9486;DHT22;4781;48.776;9.200;2022-09-24T04:09:42;11.30;99.90
9486;DHT22;4781;48.776;9.200;2022-09-24T04:12:11;11.30;99.90
9486;DHT22;4781;48.776;9.200;2022-09-24T04:14:40;11.30;99.90
9486;DHT22;4781;48.776;9.200;2022-09-24T04:17:09;11.30;99.90
9486;DHT22;4781;48.776;9.200;2022-09-24T04:19:37;11.30;99.90
9486;DHT22;4781;48.776;9.200;2022-09-24T04:22:06;11.30;99.90
9486;DHT22;4781;48.776;9.200;2022-09-24T04:24:34;11.30;99.90
9486;DHT22;4781;48.776;9.200;2022-09-24T04:27:03;11.30;99.90
9486;DHT22;4781;48.776;9.200;2022-09-24T04:29:31;11.30;99.90
9486;DHT22;4781;48.776;9.200;2022-09-24T04:31:59;11.40;99.90
9486;DHT22;4781;48.776;9.200;2022-09-24T04:34:29;11.40;99.90
9486;DHT22;4781;48.776;9.200;2022-09-24T04:36:57;11.40;99.90
9486;DHT22;4781;48.776;9.200;2022-09-24T04:39:26;11.40;99.90
9486;DHT22;4781;48.776;9.200;2022-09-24T04:41:54;11.40;99.90
9486;DHT22;4781;48.776;9.200;2022-09-24T04:44:22;11.40;99.90
9486;DHT22;4781;48.776;9.200;2022-09-24T04:46:51;11.40;99.90
9486;DHT22;4781;48.776;9.200;2022-09-24T04:49:20;11.30;99.90
9486;DHT22;4781;48.776;9.200;2022-09-24T04:51:49;11.30;99.90
9486;DHT22;4781;48.776;9.200;2022-09-24T04:54:18;11.30;99.90
9486;DHT22;4781;48.776;9.200;2022-09-24T04:56:46;11.30;99.90
9486;DHT22;4781;48.776;9.200;2022-09-24T04:59:14;11.30;99.90
9486;DHT22;4781;48.776;9.200;2022-09-24T05:01:43;11.30;99.90
9486;DHT22;4781;48.776;9.200;2022-09-24T05:04:12;11.30;99.90
9486;DHT22;4781;48.776;9.200;2022-09-24T05:06:41;11.30;99.90
9486;DHT22;4781;48.776;9.200;2022-09-24T05:09:09;11.30;99.90
9486;DHT22;4781;48.776;9.200;2022-09-24T05:11:38;11.30;99.90
9486;DHT22;4781;48.776;9.200;2022-09-24T05:14:06;11.30;99.90
9486;DHT22;4781;48.776;9.200;2022-09-24T05:16:34;11.20;99.90
9486;DHT22;4781;48.776;9.200;2022-09-24T05:19:03;11.20;99.90
9486;DHT22;4781;48.776;9.200;2022-09-24T05:21:31;11.20;99.90
9486;DHT22;4781;48.776;9.200;2022-09-24T05:24:00;11.20;99.90
9486;DHT22;4781;48.776;9.200;2022-09-24T05:26:28;11.20;99.90
9486;DHT22;4781;48.776;9.200;2022-09-24T05:29:14;11.20;99.90
9486;DHT22;4781;48.776;9.200;2022-09-24T05:31:43;11.20;99.90
9486;DHT22;4781;48.776;9.200;2022-09-24T05:34:11;11.20;99.90
9486;DHT22;4781;48.776;9.200;2022-09-24T05:36:40;11.20;99.90
9486;DHT22;4781;48.776;9.200;2022-09-24T05:39:12;11.20;99.90
9486;DHT22;4781;48.776;9.200;2022-09-24T05:41:40;11.20;99.90
9486;DHT22;4781;48.776;9.200;2022-09-24T05:44:09;11.20;99.90
9486;DHT22;4781;48.776;9.200;2022-09-24T05:46:37;11.20;99.90
9486;DHT22;4781;48.776;9.200;2022-09-24T05:49:06;11.20;99.90
9486;DHT22;4781;48.776;9.200;2022-09-24T05:51:34;11.20;99.90
9486;DHT22;4781;48.776;9.200;2022-09-24T05:54:03;11.20;99.90
9486;DHT22;4781;48.776;9.200;2022-09-24T05:56:31;11.30;99.90
9486;DHT22;4781;48.776;9.200;2022-09-24T05:59:00;11.30;99.90
9486;DHT22;4781;48.776;9.200;2022-09-24T06:01:28;11.30;99.90
9486;DHT22;4781;48.776;9.200;2022-09-24T06:03:57;11.40;99.90
9486;DHT22;4781;48.776;9.200;2022-09-24T06:06:26;11.40;99.90
9486;DHT22;4781;48.776;9.200;2022-09-24T06:08:55;11.40;99.90
9486;DHT22;4781;48.776;9.200;2022-09-24T06:11:23;11.50;99.90
9486;DHT22;4781;48.776;9.200;2022-09-24T06:13:53;11.60;99.90
9486;DHT22;4781;48.776;9.200;2022-09-24T06:16:21;11.60;99.90
9486;DHT22;4781;48.776;9.200;2022-09-24T06:18:50;11.60;99.90
9486;DHT22;4781;48.776;9.200;2022-09-24T06:21:18;11.50;99.90
9486;DHT22;4781;48.776;9.200;2022-09-24T06:23:48;11.60;99.90
9486;DHT22;4781;48.776;9.200;2022-09-24T06:26:19;11.70;99.90
9486;DHT22;4781;48.776;9.200;2022-09-24T06:28:47;11.80;99.90
9486;DHT22;4781;48.776;9.200;2022-09-24T06:31:15;11.90;99.90
9486;DHT22;4781;48.776;9.200;2022-09-24T06:33:44;11.90;99.90
9486;DHT22;4781;48.776;9.200;2022-09-24T06:36:12;12.00;99.90
9486;DHT22;4781;48.776;9.200;2022-09-24T06:38:41;12.10;99.90
9486;DHT22;4781;48.776;9.200;2022-09-24T06:41:10;12.20;99.90
9486;DHT22;4781;48.776;9.200;2022-09-24T06:43:39;12.10;99.90
9486;DHT22;4781;48.776;9.200;2022-09-24T06:46:08;12.30;99.90
9486;DHT22;4781;48.776;9.200;2022-09-24T06:48:37;12.30;99.90
9486;DHT22;4781;48.776;9.200;2022-09-24T06:51:05;12.30;99.90
9486;DHT22;4781;48.776;9.200;2022-09-24T06:53:34;12.40;99.90
9486;DHT22;4781;48.776;9.200;2022-09-24T06:56:02;12.40;99.90
9486;DHT22;4781;48.776;9.200;2022-09-24T06:58:31;12.50;99.90
9486;DHT22;4781;48.776;9.200;2022-09-24T07:01:02;12.50;99.90
9486;DHT22;4781;48.776;9.200;2022-09-24T07:03:32;12.50;99.90
9486;DHT22;4781;48.776;9.200;2022-09-24T07:06:03;12.60;99.90
9486;DHT22;4781;48.776;9.200;2022-09-24T07:08:32;12.70;99.90
9486;DHT22;4781;48.776;9.200;2022-09-24T07:11:01;12.80;99.90
9486;DHT22;4781;48.776;9.200;2022-09-24T07:13:29;12.80;99.90
9486;DHT22;4781;48.776;9.200;2022-09-24T07:15:58;12.70;99.90
9486;DHT22;4781;48.776;9.200;2022-09-24T07:18:26;12.60;99.90
9486;DHT22;4781;48.776;9.200;2022-09-24T07:20:55;12.70;99.90
9486;DHT22;4781;48.776;9.200;2022-09-24T07:23:24;12.80;99.90
9486;DHT22;4781;48.776;9.200;2022-09-24T07:25:56;13.00;99.90
9486;DHT22;4781;48.776;9.200;2022-09-24T07:28:24;13.10;99.90
9486;DHT22;4781;48.776;9.200;2022-09-24T07:30:58;13.10;99.90
9486;DHT22;4781;48.776;9.200;2022-09-24T07:33:26;13.20;99.90
9486;DHT22;4781;48.776;9.200;2022-09-24T07:35:57;13.30;99.90
9486;DHT22;4781;48.776;9.200;2022-09-24T07:38:25;13.30;99.90
9486;DHT22;4781;48.776;9.200;2022-09-24T07:40:56;13.40;99.90
9486;DHT22;4781;48.776;9.200;2022-09-24T07:43:24;13.50;99.90
9486;DHT22;4781;48.776;9.200;2022-09-24T07:45:53;13.50;99.90
9486;DHT22;4781;48.776;9.200;2022-09-24T07:48:23;13.60;99.90
9486;DHT22;4781;48.776;9.200;2022-09-24T07:50:52;13.60;99.90
9486;DHT22;4781;48.776;9.200;2022-09-24T07:53:20;13.70;99.90
9486;DHT22;4781;48.776;9.200;2022-09-24T07:55:51;13.70;99.90
9486;DHT22;4781;48.776;9.200;2022-09-24T07:58:21;13.80;99.90
9486;DHT22;4781;48.776;9.200;2022-09-24T08:00:50;13.90;99.90
9486;DHT22;4781;48.776;9.200;2022-09-24T08:03:18;13.90;99.90
9486;DHT22;4781;48.776;9.200;2022-09-24T08:05:46;14.00;99.90
9486;DHT22;4781;48.776;9.200;2022-09-24T08:08:15;14.00;99.90
9486;DHT22;4781;48.776;9.200;2022-09-24T08:10:45;14.00;99.90
9486;DHT22;4781;48.776;9.200;2022-09-24T08:13:13;13.90;99.90
9486;DHT22;4781;48.776;9.200;2022-09-24T08:15:42;14.00;99.90
9486;DHT22;4781;48.776;9.200;2022-09-24T08:18:10;14.00;99.90
9486;DHT22;4781;48.776;9.200;2022-09-24T08:20:39;14.00;99.90
9486;DHT22;4781;48.776;9.200;2022-09-24T08:23:08;14.10;99.90
9486;DHT22;4781;48.776;9.200;2022-09-24T08:25:38;14.10;99.90
9486;DHT22;4781;48.776;9.200;2022-09-24T08:28:08;14.10;99.90
9486;DHT22;4781;48.776;9.200;2022-09-24T08:30:44;14.20;99.90
9486;DHT22;4781;48.776;9.200;2022-09-24T08:33:12;14.30;99.90
9486;DHT22;4781;48.776;9.200;2022-09-24T08:35:41;14.40;99.90
9486;DHT22;4781;48.776;9.200;2022-09-24T08:38:09;14.60;99.90
9486;DHT22;4781;48.776;9.200;2022-09-24T08:40:51;14.70;99.90
9486;DHT22;4781;48.776;9.200;2022-09-24T08:43:39;14.70;99.90
9486;DHT22;4781;48.776;9.200;2022-09-24T08:49:41;15.10;99.90
9486;DHT22;4781;48.776;9.200;2022-09-24T08:52:05;15.40;99.90
9486;DHT22;4781;48.776;9.200;2022-09-24T08:54:50;15.70;99.90
9486;DHT22;4781;48.776;9.200;2022-09-24T08:57:20;15.90;99.90
9486;DHT22;4781;48.776;9.200;2022-09-24T08:59:51;16.20;99.90
9486;DHT22;4781;48.776;9.200;2022-09-24T09:05:27;16.70;99.90
9486;DHT22;4781;48.776;9.200;2022-09-24T09:08:23;16.80;99.90
9486;DHT22;4781;48.776;9.200;2022-09-24T09:10:57;16.60;99.90
9486;DHT22;4781;48.776;9.200;2022-09-24T09:13:43;16.30;99.90
9486;DHT22;4781;48.776;9.200;2022-09-24T09:16:24;16.20;99.90
9486;DHT22;4781;48.776;9.200;2022-09-24T09:18:51;16.30;99.90
9486;DHT22;4781;48.776;9.200;2022-09-24T09:21:35;16.30;99.90
9486;DHT22;4781;48.776;9.200;2022-09-24T09:24:02;16.30;99.90
9486;DHT22;4781;48.776;9.200;2022-09-24T09:26:31;16.30;99.90
9486;DHT22;4781;48.776;9.200;2022-09-24T09:29:00;16.10;99.90
9486;DHT22;4781;48.776;9.200;2022-09-24T09:34:41;16.00;99.90
9486;DHT22;4781;48.776;9.200;2022-09-24T09:37:31;15.90;99.90
9486;DHT22;4781;48.776;9.200;2022-09-24T09:42:39;15.80;99.90
9486;DHT22;4781;48.776;9.200;2022-09-24T09:45:24;15.80;99.90
9486;DHT22;4781;48.776;9.200;2022-09-24T09:47:56;15.80;99.90
9486;DHT22;4781;48.776;9.200;2022-09-24T09:53:03;15.70;99.90
9486;DHT22;4781;48.776;9.200;2022-09-24T09:55:34;15.80;99.90
9486;DHT22;4781;48.776;9.200;2022-09-24T09:58:50;15.90;99.90
9486;DHT22;4781;48.776;9.200;2022-09-24T10:01:05;16.00;99.90
9486;DHT22;4781;48.776;9.200;2022-09-24T10:06:34;15.90;99.90
9486;DHT22;4781;48.776;9.200;2022-09-24T10:09:17;15.90;99.90
9486;DHT22;4781;48.776;9.200;2022-09-24T10:11:46;15.90;99.90
9486;DHT22;4781;48.776;9.200;2022-09-24T10:14:16;15.80;99.90
9486;DHT22;4781;48.776;9.200;2022-09-24T10:16:50;15.90;99.90
9486;DHT22;4781;48.776;9.200;2022-09-24T10:19:25;15.90;99.90
9486;DHT22;4781;48.776;9.200;2022-09-24T10:21:54;15.80;99.90
9486;DHT22;4781;48.776;9.200;2022-09-24T10:24:26;15.80;99.90
9486;DHT22;4781;48.776;9.200;2022-09-24T10:26:56;15.80;99.90
9486;DHT22;4781;48.776;9.200;2022-09-24T10:29:31;16.00;99.90
9486;DHT22;4781;48.776;9.200;2022-09-24T10:32:20;16.00;99.90
9486;DHT22;4781;48.776;9.200;2022-09-24T10:34:57;16.00;99.90
9486;DHT22;4781;48.776;9.200;2022-09-24T10:37:32;15.90;99.90
9486;DHT22;4781;48.776;9.200;2022-09-24T10:42:40;15.80;99.90
9486;DHT22;4781;48.776;9.200;2022-09-24T10:45:11;15.70;99.90
9486;DHT22;4781;48.776;9.200;2022-09-24T10:47:51;15.90;99.90
9486;DHT22;4781;48.776;9.200;2022-09-24T10:50:42;15.90;99.90
9486;DHT22;4781;48.776;9.200;2022-09-24T10:59:04;16.20;99.90
9486;DHT22;4781;48.776;9.200;2022-09-24T11:02:06;16.20;99.90
9486;DHT22;4781;48.776;9.200;2022-09-24T11:05:17;15.90;99.90
9486;DHT22;4781;48.776;9.200;2022-09-24T11:07:23;15.90;99.90
9486;DHT22;4781;48.776;9.200;2022-09-24T11:10:20;15.90;99.90
9486;DHT22;4781;48.776;9.200;2022-09-24T11:13:22;15.80;99.90
9486;DHT22;4781;48.776;9.200;2022-09-24T11:19:24;15.80;99.90
9486;DHT22;4781;48.776;9.200;2022-09-24T11:25:00;15.50;99.90
9486;DHT22;4781;48.776;9.200;2022-09-24T11:37:27;15.40;99.90
9486;DHT22;4781;48.776;9.200;2022-09-24T11:40:36;15.40;99.90
9486;DHT22;4781;48.776;9.200;2022-09-24T11:45:59;15.70;99.90
9486;DHT22;4781;48.776;9.200;2022-09-24T11:54:18;15.70;99.90
9486;DHT22;4781;48.776;9.200;2022-09-24T11:56:55;15.70;99.90
9486;DHT22;4781;48.776;9.200;2022-09-24T12:02:39;15.70;99.90
9486;DHT22;4781;48.776;9.200;2022-09-24T12:07:56;15.80;99.90
9486;DHT22;4781;48.776;9.200;2022-09-24T12:10:30;15.90;99.90
9486;DHT22;4781;48.776;9.200;2022-09-24T12:13:54;15.90;99.90
9486;DHT22;4781;48.776;9.200;2022-09-24T12:15:45;16.00;99.90
9486;DHT22;4781;48.776;9.200;2022-09-24T12:18:21;15.90;99.90
9486;DHT22;4781;48.776;9.200;2022-09-24T12:20:58;15.90;99.90
9486;DHT22;4781;48.776;9.200;2022-09-24T12:23:31;16.00;99.90
9486;DHT22;4781;48.776;9.200;2022-09-24T12:26:03;16.10;99.90
9486;DHT22;4781;48.776;9.200;2022-09-24T12:28:42;16.10;99.90
9486;DHT22;4781;48.776;9.200;2022-09-24T12:34:40;16.00;99.90
9486;DHT22;4781;48.776;9.200;2022-09-24T12:37:12;16.00;99.90
9486;DHT22;4781;48.776;9.200;2022-09-24T12:42:23;16.00;99.90
9486;DHT22;4781;48.776;9.200;2022-09-24T12:44:56;15.90;99.90
9486;DHT22;4781;48.776;9.200;2022-09-24T12:47:31;15.90;99.90
9486;DHT22;4781;48.776;9.200;2022-09-24T12:50:02;15.70;99.90
9486;DHT22;4781;48.776;9.200;2022-09-24T12:52:41;15.80;99.90
9486;DHT22;4781;48.776;9.200;2022-09-24T12:55:21;15.60;99.90
9486;DHT22;4781;48.776;9.200;2022-09-24T12:58:02;15.80;99.90
9486;DHT22;4781;48.776;9.200;2022-09-24T13:00:42;15.90;99.90
9486;DHT22;4781;48.776;9.200;2022-09-24T13:03:32;16.10;99.90
9486;DHT22;4781;48.776;9.200;2022-09-24T13:06:48;16.20;99.90
9486;DHT22;4781;48.776;9.200;2022-09-24T13:08:46;16.40;99.90
9486;DHT22;4781;48.776;9.200;2022-09-24T13:11:24;16.50;99.90
9486;DHT22;4781;48.776;9.200;2022-09-24T13:14:23;16.70;99.90
9486;DHT22;4781;48.776;9.200;2022-09-24T13:16:49;16.70;99.90
9486;DHT22;4781;48.776;9.200;2022-09-24T13:19:32;16.60;99.90
9486;DHT22;4781;48.776;9.200;2022-09-24T13:22:01;16.60;99.90
9486;DHT22;4781;48.776;9.200;2022-09-24T13:24:32;16.50;99.90
9486;DHT22;4781;48.776;9.200;2022-09-24T13:27:23;16.40;99.90
9486;DHT22;4781;48.776;9.200;2022-09-24T13:30:21;16.40;99.90
9486;DHT22;4781;48.776;9.200;2022-09-24T13:32:56;16.20;99.90
9486;DHT22;4781;48.776;9.200;2022-09-24T13:35:51;16.10;99.90
9486;DHT22;4781;48.776;9.200;2022-09-24T13:38:23;16.10;99.90
9486;DHT22;4781;48.776;9.200;2022-09-24T13:41:58;16.00;99.90
9486;DHT22;4781;48.776;9.200;2022-09-24T13:43:59;16.00;99.90
9486;DHT22;4781;48.776;9.200;2022-09-24T13:46:34;15.90;99.90
9486;DHT22;4781;48.776;9.200;2022-09-24T13:49:07;15.80;99.90
9486;DHT22;4781;48.776;9.200;2022-09-24T13:51:37;15.80;99.90
9486;DHT22;4781;48.776;9.200;2022-09-24T13:57:11;15.70;99.90
9486;DHT22;4781;48.776;9.200;2022-09-24T14:00:12;15.70;99.90
9486;DHT22;4781;48.776;9.200;2022-09-24T14:03:00;15.70;99.90
9486;DHT22;4781;48.776;9.200;2022-09-24T14:05:49;15.70;99.90
9486;DHT22;4781;48.776;9.200;2022-09-24T14:08:20;15.70;99.90
9486;DHT22;4781;48.776;9.200;2022-09-24T14:10:50;15.80;99.90
9486;DHT22;4781;48.776;9.200;2022-09-24T14:13:27;16.00;99.90
9486;DHT22;4781;48.776;9.200;2022-09-24T14:15:56;16.10;99.90
9486;DHT22;4781;48.776;9.200;2022-09-24T14:18:45;16.00;99.90
9486;DHT22;4781;48.776;9.200;2022-09-24T14:21:25;16.00;99.90
9486;DHT22;4781;48.776;9.200;2022-09-24T14:24:07;15.90;99.90
9486;DHT22;4781;48.776;9.200;2022-09-24T14:26:46;15.90;99.90
9486;DHT22;4781;48.776;9.200;2022-09-24T14:29:27;16.00;99.90
9486;DHT22;4781;48.776;9.200;2022-09-24T14:32:00;16.10;99.90
9486;DHT22;4781;48.776;9.200;2022-09-24T14:37:17;15.90;99.90
9486;DHT22;4781;48.776;9.200;2022-09-24T14:39:48;15.90;99.90
9486;DHT22;4781;48.776;9.200;2022-09-24T14:42:35;15.70;99.90
9486;DHT22;4781;48.776;9.200;2022-09-24T14:45:18;15.70;99.90
9486;DHT22;4781;48.776;9.200;2022-09-24T14:47:58;15.80;99.90
9486;DHT22;4781;48.776;9.200;2022-09-24T14:53:35;15.90;99.90
9486;DHT22;4781;48.776;9.200;2022-09-24T14:56:31;16.10;99.90
9486;DHT22;4781;48.776;9.200;2022-09-24T14:59:30;15.90;99.90
9486;DHT22;4781;48.776;9.200;2022-09-24T15:02:21;15.90;99.90
9486;DHT22;4781;48.776;9.200;2022-09-24T15:05:09;15.90;99.90
9486;DHT22;4781;48.776;9.200;2022-09-24T15:07:37;15.90;99.90
9486;DHT22;4781;48.776;9.200;2022-09-24T15:10:16;15.90;99.90
9486;DHT22;4781;48.776;9.200;2022-09-24T15:12:41;15.90;99.90
9486;DHT22;4781;48.776;9.200;2022-09-24T15:17:50;15.90;99.90
9486;DHT22;4781;48.776;9.200;2022-09-24T15:20:18;15.90;99.90
9486;DHT22;4781;48.776;9.200;2022-09-24T15:22:47;15.80;99.90
9486;DHT22;4781;48.776;9.200;2022-09-24T15:25:15;15.80;99.90
9486;DHT22;4781;48.776;9.200;2022-09-24T15:27:44;15.90;99.90
9486;DHT22;4781;48.776;9.200;2022-09-24T15:30:17;15.90;99.90
9486;DHT22;4781;48.776;9.200;2022-09-24T15:32:47;15.90;99.90
9486;DHT22;4781;48.776;9.200;2022-09-24T15:35:16;15.90;99.90
9486;DHT22;4781;48.776;9.200;2022-09-24T15:37:45;16.00;99.90
9486;DHT22;4781;48.776;9.200;2022-09-24T15:40:22;16.00;99.90
9486;DHT22;4781;48.776;9.200;2022-09-24T15:42:53;16.00;99.90
9486;DHT22;4781;48.776;9.200;2022-09-24T15:45:23;16.00;99.90
9486;DHT22;4781;48.776;9.200;2022-09-24T15:47:52;16.00;99.90
9486;DHT22;4781;48.776;9.200;2022-09-24T15:50:21;16.00;99.90
9486;DHT22;4781;48.776;9.200;2022-09-24T15:52:57;16.00;99.90
9486;DHT22;4781;48.776;9.200;2022-09-24T15:55:26;15.90;99.90
9486;DHT22;4781;48.776;9.200;2022-09-24T15:57:56;15.90;99.90
9486;DHT22;4781;48.776;9.200;2022-09-24T16:00:25;15.80;99.90
9486;DHT22;4781;48.776;9.200;2022-09-24T16:02:55;15.80;99.90
9486;DHT22;4781;48.776;9.200;2022-09-24T16:05:24;15.80;99.90
9486;DHT22;4781;48.776;9.200;2022-09-24T16:07:53;15.80;99.90
9486;DHT22;4781;48.776;9.200;2022-09-24T16:10:21;15.70;99.90
9486;DHT22;4781;48.776;9.200;2022-09-24T16:12:49;15.50;99.90
9486;DHT22;4781;48.776;9.200;2022-09-24T16:15:18;15.50;99.90
9486;DHT22;4781;48.776;9.200;2022-09-24T16:17:47;15.40;99.90
9486;DHT22;4781;48.776;9.200;2022-09-24T16:20:15;15.40;99.90
9486;DHT22;4781;48.776;9.200;2022-09-24T16:22:44;15.40;99.90
9486;DHT22;4781;48.776;9.200;2022-09-24T16:25:13;15.40;99.90
9486;DHT22;4781;48.776;9.200;2022-09-24T16:27:41;15.30;99.90
9486;DHT22;4781;48.776;9.200;2022-09-24T16:30:10;15.30;99.90
9486;DHT22;4781;48.776;9.200;2022-09-24T16:32:38;15.20;99.90
9486;DHT22;4781;48.776;9.200;2022-09-24T16:35:07;15.20;99.90
9486;DHT22;4781;48.776;9.200;2022-09-24T16:37:37;15.20;99.90
9486;DHT22;4781;48.776;9.200;2022-09-24T16:40:07;15.10;99.90
9486;DHT22;4781;48.776;9.200;2022-09-24T16:42:36;15.00;99.90
9486;DHT22;4781;48.776;9.200;2022-09-24T16:45:05;15.00;99.90
9486;DHT22;4781;48.776;9.200;2022-09-24T16:47:35;15.00;99.90
9486;DHT22;4781;48.776;9.200;2022-09-24T16:50:04;14.90;99.90
9486;DHT22;4781;48.776;9.200;2022-09-24T16:52:33;14.80;99.90
9486;DHT22;4781;48.776;9.200;2022-09-24T16:55:02;14.80;99.90
9486;DHT22;4781;48.776;9.200;2022-09-24T16:57:30;14.70;99.90
9486;DHT22;4781;48.776;9.200;2022-09-24T17:00:01;14.70;99.90
9486;DHT22;4781;48.776;9.200;2022-09-24T17:02:31;14.60;99.90
9486;DHT22;4781;48.776;9.200;2022-09-24T17:05:00;14.50;99.90
9486;DHT22;4781;48.776;9.200;2022-09-24T17:07:30;14.50;99.90
9486;DHT22;4781;48.776;9.200;2022-09-24T17:09:59;14.40;99.90
9486;DHT22;4781;48.776;9.200;2022-09-24T17:12:41;14.40;99.90
9486;DHT22;4781;48.776;9.200;2022-09-24T17:15:12;14.40;99.90
9486;DHT22;4781;48.776;9.200;2022-09-24T17:17:42;14.40;99.90
9486;DHT22;4781;48.776;9.200;2022-09-24T17:20:10;14.30;99.90
9486;DHT22;4781;48.776;9.200;2022-09-24T17:22:39;14.30;99.90
9486;DHT22;4781;48.776;9.200;2022-09-24T17:25:08;14.20;99.90
9486;DHT22;4781;48.776;9.200;2022-09-24T17:27:36;14.20;99.90
9486;DHT22;4781;48.776;9.200;2022-09-24T17:30:06;14.20;99.90
9486;DHT22;4781;48.776;9.200;2022-09-24T17:32:36;14.20;99.90
9486;DHT22;4781;48.776;9.200;2022-09-24T17:35:05;14.20;99.90
9486;DHT22;4781;48.776;9.200;2022-09-24T17:37:34;14.20;99.90
9486;DHT22;4781;48.776;9.200;2022-09-24T17:40:03;14.10;99.90
9486;DHT22;4781;48.776;9.200;2022-09-24T17:42:33;14.20;99.90
9486;DHT22;4781;48.776;9.200;2022-09-24T17:45:02;14.10;99.90
9486;DHT22;4781;48.776;9.200;2022-09-24T17:47:30;14.10;99.90
9486;DHT22;4781;48.776;9.200;2022-09-24T17:50:02;14.00;99.90
9486;DHT22;4781;48.776;9.200;2022-09-24T17:52:30;14.00;99.90
9486;DHT22;4781;48.776;9.200;2022-09-24T17:54:59;14.00;99.90
9486;DHT22;4781;48.776;9.200;2022-09-24T17:57:27;14.00;99.90
9486;DHT22;4781;48.776;9.200;2022-09-24T17:59:56;14.00;99.90
9486;DHT22;4781;48.776;9.200;2022-09-24T18:02:25;13.90;99.90
9486;DHT22;4781;48.776;9.200;2022-09-24T18:04:53;14.00;99.90
9486;DHT22;4781;48.776;9.200;2022-09-24T18:07:21;14.00;99.90
9486;DHT22;4781;48.776;9.200;2022-09-24T18:09:50;14.00;99.90